createdAt,value
2023-05-12T00:00:11.111Z,14.38
2023-05-12T00:01:10.808Z,14.27
2023-05-12T00:02:11.049Z,14.32
2023-05-12T00:03:11.052Z,14.24
2023-05-12T00:04:11.105Z,14.15
2023-05-12T00:05:11.006Z,14.13
2023-05-12T00:06:11.089Z,14.18
2023-05-12T00:07:11.212Z,14.23
2023-05-12T00:08:11.253Z,14.27
2023-05-12T00:09:11.312Z,14.28
2023-05-12T00:10:11.349Z,14.21
2023-05-12T00:11:11.454Z,14.07
2023-05-12T00:12:11.542Z,14.20
2023-05-12T00:13:11.569Z,14.17
2023-05-12T00:14:11.622Z,14.07
2023-05-12T00:15:11.702Z,14.08
2023-05-12T00:16:11.770Z,14.14
2023-05-12T00:17:11.852Z,14.15
2023-05-12T00:18:11.898Z,14.11
2023-05-12T00:19:11.954Z,14.03
2023-05-12T00:20:11.998Z,14.04
2023-05-12T00:21:12.118Z,14.13
2023-05-12T00:22:12.025Z,14.20
2023-05-12T00:23:12.063Z,14.15
2023-05-12T00:24:12.178Z,14.08
2023-05-12T00:25:12.236Z,14.18
2023-05-12T00:26:12.596Z,14.25
2023-05-12T00:27:12.416Z,14.21
2023-05-12T00:28:12.495Z,14.28
2023-05-12T00:29:12.613Z,14.24
2023-05-12T00:30:12.684Z,14.23
2023-05-12T00:31:12.841Z,14.23
2023-05-12T00:32:12.820Z,14.14
2023-05-12T00:33:12.873Z,14.08
2023-05-12T00:34:12.924Z,14.01
2023-05-12T00:35:12.937Z,14.01
2023-05-12T00:36:13.134Z,13.97
2023-05-12T00:37:13.067Z,13.91
2023-05-12T00:38:13.173Z,13.87
2023-05-12T00:39:13.207Z,13.84
2023-05-12T00:40:13.240Z,13.97
2023-05-12T00:41:13.633Z,13.98
2023-05-12T00:42:13.361Z,13.86
2023-05-12T00:43:13.427Z,13.87
2023-05-12T00:44:13.492Z,13.68
2023-05-12T00:45:13.573Z,13.70
2023-05-12T00:46:13.671Z,13.74
2023-05-12T00:47:13.683Z,13.77
2023-05-12T00:48:13.750Z,13.86
2023-05-12T00:49:13.765Z,13.90
2023-05-12T00:50:13.812Z,13.81
2023-05-12T00:51:13.895Z,13.94
2023-05-12T00:52:13.887Z,14.03
2023-05-12T00:53:13.911Z,14.04
2023-05-12T00:54:13.990Z,14.03
2023-05-12T00:55:14.627Z,14.07
2023-05-12T00:56:14.038Z,14.13
2023-05-12T00:57:14.053Z,14.10
2023-05-12T00:58:14.110Z,14.06
2023-05-12T00:59:14.161Z,14.06
2023-05-12T01:00:14.189Z,13.90
2023-05-12T01:01:14.675Z,13.79
2023-05-12T01:02:14.285Z,13.81
2023-05-12T01:03:14.429Z,13.84
2023-05-12T01:04:14.364Z,13.98
2023-05-12T01:05:14.370Z,13.98
2023-05-12T01:06:14.434Z,13.89
2023-05-12T01:07:14.432Z,13.96
2023-05-12T01:08:14.480Z,13.97
2023-05-12T01:09:14.482Z,14.00
2023-05-12T01:10:14.551Z,14.06
2023-05-12T01:11:14.632Z,14.04
2023-05-12T01:12:14.557Z,14.13
2023-05-12T01:13:14.592Z,14.14
2023-05-12T01:14:14.605Z,14.14
2023-05-12T01:15:14.632Z,14.14
2023-05-12T01:16:14.649Z,14.18
2023-05-12T01:17:14.705Z,14.23
2023-05-12T01:18:14.674Z,14.21
2023-05-12T01:19:14.807Z,14.27
2023-05-12T01:20:14.754Z,14.23
2023-05-12T01:21:15.105Z,14.25
2023-05-12T01:22:14.825Z,14.29
2023-05-12T01:23:14.952Z,14.24
2023-05-12T01:24:15.046Z,14.24
2023-05-12T01:25:15.074Z,14.20
2023-05-12T01:26:15.116Z,14.25
2023-05-12T01:27:15.137Z,14.23
2023-05-12T01:28:15.170Z,14.24
2023-05-12T01:29:15.195Z,14.25
2023-05-12T01:30:15.292Z,14.14
2023-05-12T01:31:15.652Z,14.20
2023-05-12T01:32:15.356Z,14.15
2023-05-12T01:33:15.394Z,14.07
2023-05-12T01:34:15.486Z,14.03
2023-05-12T01:35:15.488Z,14.07
2023-05-12T01:36:15.530Z,13.94
2023-05-12T01:37:15.562Z,13.97
2023-05-12T01:38:15.639Z,13.89
2023-05-12T01:39:15.751Z,13.90
2023-05-12T01:40:15.844Z,13.86
2023-05-12T01:41:15.938Z,13.79
2023-05-12T01:42:15.973Z,13.77
2023-05-12T01:43:15.941Z,13.87
2023-05-12T01:44:15.964Z,13.94
2023-05-12T01:45:15.924Z,13.97
2023-05-12T01:46:16.241Z,14.04
2023-05-12T01:47:16.132Z,14.08
2023-05-12T01:48:15.982Z,14.08
2023-05-12T01:49:15.990Z,14.08
2023-05-12T01:50:16.010Z,14.14
2023-05-12T01:51:16.042Z,14.20
2023-05-12T01:52:16.052Z,14.14
2023-05-12T01:53:16.069Z,13.97
2023-05-12T01:54:16.098Z,13.93
2023-05-12T01:55:16.103Z,13.94
2023-05-12T01:56:16.139Z,13.90
2023-05-12T01:57:16.175Z,13.90
2023-05-12T01:58:16.172Z,13.93
2023-05-12T01:59:16.177Z,13.89
2023-05-12T02:00:16.179Z,13.96
2023-05-12T02:01:16.180Z,13.98
2023-05-12T02:02:16.244Z,14.03
2023-05-12T02:03:16.227Z,14.04
2023-05-12T02:04:16.361Z,14.07
2023-05-12T02:05:16.154Z,14.07
2023-05-12T02:06:16.157Z,14.11
2023-05-12T02:07:16.130Z,14.07
2023-05-12T02:08:16.133Z,14.14
2023-05-12T02:09:16.160Z,14.17
2023-05-12T02:10:16.191Z,14.20
2023-05-12T02:11:16.158Z,14.23
2023-05-12T02:12:16.234Z,14.20
2023-05-12T02:13:16.264Z,14.17
2023-05-12T02:14:16.296Z,14.20
2023-05-12T02:15:16.384Z,14.21
2023-05-12T02:16:16.686Z,14.27
2023-05-12T02:17:16.405Z,14.25
2023-05-12T02:18:16.494Z,14.17
2023-05-12T02:19:16.565Z,14.17
2023-05-12T02:20:16.650Z,14.21
2023-05-12T02:21:16.645Z,14.23
2023-05-12T02:22:16.684Z,14.28
2023-05-12T02:23:16.680Z,14.29
2023-05-12T02:24:16.821Z,14.34
2023-05-12T02:25:16.745Z,14.35
2023-05-12T02:26:16.740Z,14.36
2023-05-12T02:27:16.719Z,14.38
2023-05-12T02:28:16.757Z,14.38
2023-05-12T02:29:16.788Z,14.35
2023-05-12T02:30:16.801Z,14.28
2023-05-12T02:31:17.112Z,14.29
2023-05-12T02:32:16.808Z,14.34
2023-05-12T02:33:16.840Z,14.29
2023-05-12T02:34:16.848Z,14.20
2023-05-12T02:35:16.854Z,14.24
2023-05-12T02:36:17.143Z,14.28
2023-05-12T02:37:16.881Z,14.15
2023-05-12T02:38:16.955Z,14.13
2023-05-12T02:39:16.933Z,14.10
2023-05-12T02:40:17.022Z,14.13
2023-05-12T02:41:17.020Z,14.11
2023-05-12T02:42:17.006Z,14.13
2023-05-12T02:43:17.017Z,14.11
2023-05-12T02:44:17.023Z,14.17
2023-05-12T02:45:17.022Z,14.20
2023-05-12T02:46:17.079Z,14.20
2023-05-12T02:47:17.012Z,14.14
2023-05-12T02:48:17.061Z,14.10
2023-05-12T02:49:17.047Z,14.13
2023-05-12T02:50:17.101Z,14.01
2023-05-12T02:51:17.047Z,14.04
2023-05-12T02:52:17.038Z,14.06
2023-05-12T02:53:17.075Z,14.10
2023-05-12T02:54:17.079Z,14.08
2023-05-12T02:55:17.073Z,14.07
2023-05-12T02:56:17.053Z,14.11
2023-05-12T02:57:17.072Z,14.13
2023-05-12T02:58:17.049Z,14.13
2023-05-12T02:59:17.066Z,14.11
2023-05-12T03:00:17.118Z,14.15
2023-05-12T03:01:17.102Z,14.17
2023-05-12T03:02:17.097Z,14.01
2023-05-12T03:03:17.132Z,14.07
2023-05-12T03:04:17.088Z,14.11
2023-05-12T03:05:17.089Z,14.08
2023-05-12T03:06:17.228Z,14.07
2023-05-12T03:07:17.147Z,14.13
2023-05-12T03:08:17.077Z,14.15
2023-05-12T03:09:17.096Z,14.15
2023-05-12T03:10:17.161Z,14.18
2023-05-12T03:11:17.085Z,14.08
2023-05-12T03:12:17.143Z,14.11
2023-05-12T03:13:17.101Z,14.17
2023-05-12T03:14:17.140Z,14.23
2023-05-12T03:15:17.148Z,14.21
2023-05-12T03:16:18.914Z,14.23
2023-05-12T03:17:17.714Z,14.24
2023-05-12T03:18:17.249Z,14.23
2023-05-12T03:19:17.223Z,14.20
2023-05-12T03:20:17.284Z,14.23
2023-05-12T03:21:17.222Z,14.20
2023-05-12T03:22:17.667Z,14.23
2023-05-12T03:23:17.236Z,14.25
2023-05-12T03:24:17.269Z,14.28
2023-05-12T03:25:17.343Z,14.31
2023-05-12T03:26:17.257Z,14.24
2023-05-12T03:27:17.232Z,14.23
2023-05-12T03:28:17.280Z,14.18
2023-05-12T03:29:17.262Z,14.15
2023-05-12T03:30:17.412Z,14.14
2023-05-12T03:31:17.265Z,14.21
2023-05-12T03:32:17.298Z,14.17
2023-05-12T03:33:17.297Z,14.18
2023-05-12T03:34:17.303Z,14.13
2023-05-12T03:35:17.296Z,14.04
2023-05-12T03:36:17.347Z,13.98
2023-05-12T03:37:17.661Z,14.00
2023-05-12T03:38:17.337Z,14.08
2023-05-12T03:39:17.285Z,14.06
2023-05-12T03:40:17.422Z,13.96
2023-05-12T03:41:17.292Z,14.01
2023-05-12T03:42:17.691Z,14.06
2023-05-12T03:43:17.313Z,13.98
2023-05-12T03:44:17.322Z,14.04
2023-05-12T03:45:17.312Z,14.10
2023-05-12T03:46:17.377Z,14.07
2023-05-12T03:47:17.727Z,13.87
2023-05-12T03:48:17.346Z,13.79
2023-05-12T03:49:17.347Z,13.84
2023-05-12T03:50:17.429Z,13.89
2023-05-12T03:51:17.361Z,13.89
2023-05-12T03:52:17.356Z,13.91
2023-05-12T03:53:17.354Z,13.93
2023-05-12T03:54:17.344Z,13.90
2023-05-12T03:55:17.366Z,14.00
2023-05-12T03:56:17.357Z,14.00
2023-05-12T03:57:17.368Z,14.06
2023-05-12T03:58:17.362Z,13.91
2023-05-12T03:59:17.345Z,13.98
2023-05-12T04:00:17.394Z,14.03
2023-05-12T04:01:17.370Z,13.96
2023-05-12T04:02:17.692Z,13.86
2023-05-12T04:03:17.565Z,13.93
2023-05-12T04:04:17.409Z,13.98
2023-05-12T04:05:17.392Z,13.90
2023-05-12T04:06:17.363Z,13.94
2023-05-12T04:07:17.434Z,13.89
2023-05-12T04:08:17.436Z,13.98
2023-05-12T04:09:17.455Z,13.90
2023-05-12T04:10:17.480Z,13.98
2023-05-12T04:11:17.409Z,14.04
2023-05-12T04:12:17.479Z,14.06
2023-05-12T04:13:17.416Z,14.07
2023-05-12T04:14:17.498Z,13.96
2023-05-12T04:15:17.487Z,13.93
2023-05-12T04:16:17.546Z,14.03
2023-05-12T04:17:17.688Z,14.07
2023-05-12T04:18:17.520Z,14.11
2023-05-12T04:19:17.512Z,14.13
2023-05-12T04:20:17.716Z,14.11
2023-05-12T04:21:17.479Z,14.14
2023-05-12T04:22:17.666Z,14.10
2023-05-12T04:23:17.513Z,14.04
2023-05-12T04:24:17.511Z,13.84
2023-05-12T04:25:17.558Z,13.69
2023-05-12T04:26:17.519Z,13.63
2023-05-12T04:27:17.636Z,13.68
2023-05-12T04:28:17.534Z,13.77
2023-05-12T04:29:17.537Z,13.83
2023-05-12T04:30:17.616Z,13.80
2023-05-12T04:31:17.587Z,13.80
2023-05-12T04:32:17.773Z,13.73
2023-05-12T04:33:17.663Z,13.74
2023-05-12T04:34:17.525Z,13.58
2023-05-12T04:35:17.557Z,13.59
2023-05-12T04:36:17.555Z,13.66
2023-05-12T04:37:17.679Z,13.72
2023-05-12T04:38:17.655Z,13.70
2023-05-12T04:39:17.544Z,13.72
2023-05-12T04:40:17.645Z,13.76
2023-05-12T04:41:17.601Z,13.83
2023-05-12T04:42:17.608Z,13.73
2023-05-12T04:44:17.557Z,13.76
2023-05-12T04:45:17.660Z,13.74
2023-05-12T04:46:17.560Z,13.79
2023-05-12T04:47:17.537Z,13.80
2023-05-12T04:48:17.542Z,13.81
2023-05-12T04:49:17.548Z,13.83
2023-05-12T04:50:17.513Z,13.87
2023-05-12T04:51:17.513Z,13.91
2023-05-12T04:52:17.508Z,13.87
2023-05-12T04:53:17.500Z,13.97
2023-05-12T04:54:17.473Z,13.96
2023-05-12T04:55:17.526Z,14.04
2023-05-12T04:56:17.509Z,13.97
2023-05-12T04:57:17.668Z,13.97
2023-05-12T04:58:17.471Z,14.03
2023-05-12T04:59:17.489Z,14.03
2023-05-12T05:00:17.454Z,14.08
2023-05-12T05:01:17.466Z,14.07
2023-05-12T05:02:17.716Z,14.10
2023-05-12T05:03:17.598Z,14.11
2023-05-12T05:04:17.472Z,14.11
2023-05-12T05:05:17.437Z,14.17
2023-05-12T05:06:17.410Z,14.23
2023-05-12T05:07:17.677Z,14.25
2023-05-12T05:08:17.400Z,14.28
2023-05-12T05:09:17.393Z,14.28
2023-05-12T05:10:17.409Z,14.27
2023-05-12T05:11:17.403Z,14.25
2023-05-12T05:12:17.364Z,14.34
2023-05-12T05:13:17.384Z,14.28
2023-05-12T05:14:17.381Z,14.31
2023-05-12T05:15:17.534Z,14.25
2023-05-12T05:16:17.390Z,14.28
2023-05-12T05:17:17.338Z,14.32
2023-05-12T05:18:17.348Z,14.25
2023-05-12T05:19:22.842Z,14.31
2023-05-12T05:20:19.699Z,14.27
2023-05-12T05:21:17.489Z,14.29
2023-05-12T05:22:17.479Z,14.35
2023-05-12T05:23:17.486Z,14.31
2023-05-12T05:24:17.478Z,14.34
2023-05-12T05:25:17.579Z,14.36
2023-05-12T05:26:17.529Z,14.29
2023-05-12T05:27:17.534Z,14.35
2023-05-12T05:28:17.528Z,14.36
2023-05-12T05:29:17.544Z,14.36
2023-05-12T05:30:17.563Z,14.42
2023-05-12T05:31:17.641Z,14.44
2023-05-12T05:32:17.709Z,14.48
2023-05-12T05:33:17.623Z,14.45
2023-05-12T05:34:17.711Z,14.41
2023-05-12T05:35:17.961Z,14.39
2023-05-12T05:36:17.780Z,14.48
2023-05-12T05:37:18.204Z,14.45
2023-05-12T05:38:17.915Z,14.49
2023-05-12T05:39:18.024Z,14.48
2023-05-12T05:40:18.069Z,14.42
2023-05-12T05:41:18.114Z,14.45
2023-05-12T05:42:18.177Z,14.51
2023-05-12T05:43:18.216Z,14.52
2023-05-12T05:44:18.342Z,14.56
2023-05-12T05:45:18.490Z,14.59
2023-05-12T05:46:18.456Z,14.62
2023-05-12T05:47:18.449Z,14.59
2023-05-12T05:48:18.532Z,14.61
2023-05-12T05:49:18.577Z,14.61
2023-05-12T05:50:18.643Z,14.65
2023-05-12T05:51:18.681Z,14.66
2023-05-12T05:52:19.200Z,14.69
2023-05-12T05:53:19.486Z,14.70
2023-05-12T05:54:18.897Z,14.66
2023-05-12T05:55:19.378Z,14.66
2023-05-12T05:56:18.995Z,14.68
2023-05-12T05:57:19.173Z,14.72
2023-05-12T05:58:19.071Z,14.76
2023-05-12T05:59:19.150Z,14.79
2023-05-12T06:00:19.219Z,14.79
2023-05-12T06:01:19.280Z,14.82
2023-05-12T06:02:19.352Z,14.84
2023-05-12T06:03:19.561Z,14.86
2023-05-12T06:04:19.541Z,14.87
2023-05-12T06:05:19.779Z,14.89
2023-05-12T06:06:19.601Z,14.87
2023-05-12T06:07:22.003Z,14.75
2023-05-12T06:08:19.801Z,14.72
2023-05-12T06:09:19.826Z,14.76
2023-05-12T06:10:20.095Z,14.68
2023-05-12T06:11:19.935Z,14.76
2023-05-12T06:12:20.227Z,14.73
2023-05-12T06:13:20.066Z,14.63
2023-05-12T06:14:20.165Z,14.75
2023-05-12T06:15:20.482Z,14.63
2023-05-12T06:16:20.234Z,14.61
2023-05-12T06:17:20.319Z,14.73
2023-05-12T06:18:20.338Z,14.76
2023-05-12T06:19:20.339Z,14.83
2023-05-12T06:20:20.391Z,14.84
2023-05-12T06:21:20.439Z,14.93
2023-05-12T06:22:20.504Z,14.96
2023-05-12T06:23:20.510Z,15.01
2023-05-12T06:24:20.508Z,15.08
2023-05-12T06:25:20.789Z,15.11
2023-05-12T06:26:20.528Z,15.17
2023-05-12T06:27:20.603Z,15.30
2023-05-12T06:28:20.604Z,15.52
2023-05-12T06:29:20.640Z,15.74
2023-05-12T06:30:20.677Z,16.00
2023-05-12T06:31:20.755Z,16.20
2023-05-12T06:32:21.240Z,16.38
2023-05-12T06:33:20.768Z,16.54
2023-05-12T06:34:20.832Z,16.65
2023-05-12T06:35:21.082Z,16.76
2023-05-12T06:36:20.948Z,16.86
2023-05-12T06:37:21.004Z,16.75
2023-05-12T06:38:21.224Z,16.68
2023-05-12T06:39:21.059Z,16.54
2023-05-12T06:40:21.135Z,16.41
2023-05-12T06:41:21.149Z,16.32
2023-05-12T06:42:21.149Z,16.28
2023-05-12T06:43:21.227Z,16.16
2023-05-12T06:44:21.172Z,15.89
2023-05-12T06:45:21.798Z,15.69
2023-05-12T06:46:21.334Z,15.58
2023-05-12T06:47:21.353Z,15.68
2023-05-12T06:48:21.718Z,15.65
2023-05-12T06:49:21.417Z,15.63
2023-05-12T06:50:21.431Z,15.61
2023-05-12T06:51:21.381Z,15.59
2023-05-12T06:52:21.482Z,15.48
2023-05-12T06:53:24.016Z,15.44
2023-05-12T06:54:21.490Z,15.44
2023-05-12T06:55:21.785Z,15.44
2023-05-12T06:56:21.422Z,15.39
2023-05-12T06:57:21.408Z,15.42
2023-05-12T06:58:21.734Z,15.41
2023-05-12T06:59:21.505Z,15.37
2023-05-12T07:00:21.341Z,15.27
2023-05-12T07:01:21.389Z,15.08
2023-05-12T07:02:22.389Z,15.03
2023-05-12T07:03:21.737Z,15.11
2023-05-12T07:04:21.331Z,14.94
2023-05-12T07:05:21.585Z,15.00
2023-05-12T07:06:21.350Z,15.07
2023-05-12T07:07:21.312Z,15.00
2023-05-12T07:08:21.705Z,15.03
2023-05-12T07:09:21.312Z,14.96
2023-05-12T07:10:21.334Z,15.06
2023-05-12T07:11:21.337Z,15.13
2023-05-12T07:12:21.300Z,15.20
2023-05-12T07:13:21.722Z,15.14
2023-05-12T07:14:21.272Z,15.13
2023-05-12T07:15:21.546Z,15.07
2023-05-12T07:16:21.341Z,15.18
2023-05-12T07:17:21.301Z,15.31
2023-05-12T07:18:21.773Z,15.38
2023-05-12T07:19:21.299Z,15.46
2023-05-12T07:20:21.363Z,15.58
2023-05-12T07:21:21.428Z,15.63
2023-05-12T07:22:21.536Z,15.70
2023-05-12T07:23:21.566Z,15.74
2023-05-12T07:24:21.628Z,15.82
2023-05-12T07:25:21.949Z,15.85
2023-05-12T07:26:21.708Z,15.52
2023-05-12T07:27:21.765Z,15.70
2023-05-12T07:28:22.218Z,15.82
2023-05-12T07:29:21.888Z,15.92
2023-05-12T07:30:21.934Z,15.97
2023-05-12T07:31:22.038Z,15.97
2023-05-12T07:32:21.987Z,15.78
2023-05-12T07:33:22.231Z,15.74
2023-05-12T07:34:22.044Z,15.61
2023-05-12T07:35:22.252Z,15.72
2023-05-12T07:36:22.265Z,15.48
2023-05-12T07:37:22.066Z,15.45
2023-05-12T07:38:22.073Z,15.63
2023-05-12T07:39:22.135Z,15.73
2023-05-12T07:40:22.213Z,15.79
2023-05-12T07:41:22.337Z,15.82
2023-05-12T07:42:22.446Z,15.69
2023-05-12T07:43:22.139Z,15.56
2023-05-12T07:44:22.115Z,15.58
2023-05-12T07:45:22.177Z,15.73
2023-05-12T07:46:22.206Z,15.83
2023-05-12T07:47:22.141Z,15.92
2023-05-12T07:48:22.226Z,15.69
2023-05-12T07:49:22.159Z,15.65
2023-05-12T07:50:22.226Z,15.76
2023-05-12T07:51:22.202Z,15.86
2023-05-12T07:52:22.247Z,15.86
2023-05-12T07:53:22.724Z,15.94
2023-05-12T07:54:22.296Z,16.00
2023-05-12T07:55:22.502Z,16.04
2023-05-12T07:56:22.382Z,16.07
2023-05-12T07:57:22.388Z,16.10
2023-05-12T07:58:22.778Z,16.08
2023-05-12T07:59:22.469Z,16.24
2023-05-12T08:00:22.546Z,16.25
2023-05-12T08:01:22.601Z,16.34
2023-05-12T08:02:22.677Z,16.44
2023-05-12T08:03:22.775Z,16.55
2023-05-12T08:04:22.781Z,16.52
2023-05-12T08:05:22.848Z,16.51
2023-05-12T08:06:22.812Z,16.55
2023-05-12T08:07:22.858Z,16.68
2023-05-12T08:08:23.268Z,16.68
2023-05-12T08:09:22.920Z,16.61
2023-05-12T08:10:22.970Z,16.62
2023-05-12T08:11:22.944Z,16.62
2023-05-12T08:12:22.952Z,16.70
2023-05-12T08:13:22.995Z,16.78
2023-05-12T08:14:23.012Z,16.84
2023-05-12T08:15:23.712Z,16.86
2023-05-12T08:16:23.053Z,16.69
2023-05-12T08:17:23.070Z,16.79
2023-05-12T08:18:23.267Z,16.86
2023-05-12T08:19:22.999Z,16.86
2023-05-12T08:20:23.196Z,16.76
2023-05-12T08:21:23.064Z,16.91
2023-05-12T08:22:23.099Z,16.96
2023-05-12T08:23:23.718Z,16.96
2023-05-12T08:24:23.398Z,17.10
2023-05-12T08:25:23.191Z,17.13
2023-05-12T08:26:23.210Z,17.21
2023-05-12T08:27:23.149Z,17.31
2023-05-12T08:28:23.152Z,17.17
2023-05-12T08:29:23.151Z,17.18
2023-05-12T08:30:23.193Z,17.07
2023-05-12T08:31:23.191Z,16.75
2023-05-12T08:32:23.172Z,16.96
2023-05-12T08:33:23.236Z,16.84
2023-05-12T08:34:23.269Z,17.13
2023-05-12T08:35:23.287Z,17.30
2023-05-12T08:36:23.395Z,17.31
2023-05-12T08:37:23.426Z,17.30
2023-05-12T08:38:23.478Z,17.25
2023-05-12T08:39:23.513Z,17.18
2023-05-12T08:40:23.684Z,17.17
2023-05-12T08:41:23.635Z,17.33
2023-05-12T08:42:23.704Z,17.39
2023-05-12T08:43:23.732Z,17.42
2023-05-12T08:44:23.855Z,17.45
2023-05-12T08:45:23.911Z,17.38
2023-05-12T08:46:24.093Z,17.41
2023-05-12T08:47:23.955Z,17.33
2023-05-12T08:48:24.002Z,17.51
2023-05-12T08:49:24.016Z,17.35
2023-05-12T08:50:24.103Z,17.39
2023-05-12T08:51:24.208Z,17.52
2023-05-12T08:52:24.191Z,17.56
2023-05-12T08:53:24.212Z,17.65
2023-05-12T08:54:24.277Z,17.73
2023-05-12T08:55:28.541Z,17.82
2023-05-12T08:57:24.323Z,17.85
2023-05-12T08:58:33.979Z,17.93
2023-05-12T08:59:25.317Z,17.90
2023-05-12T09:00:24.377Z,17.97
2023-05-12T09:01:24.353Z,17.94
2023-05-12T09:02:24.629Z,17.79
2023-05-12T09:03:24.801Z,17.61
2023-05-12T09:04:24.360Z,17.68
2023-05-12T09:05:24.304Z,17.68
2023-05-12T09:06:24.306Z,17.76
2023-05-12T09:07:24.252Z,17.69
2023-05-12T09:08:24.250Z,17.59
2023-05-12T09:09:24.257Z,17.70
2023-05-12T09:11:24.260Z,17.80
2023-05-12T09:12:24.220Z,17.90
2023-05-12T09:13:24.251Z,17.87
2023-05-12T09:14:24.183Z,17.87
2023-05-12T09:15:24.195Z,17.97
2023-05-12T09:16:24.258Z,17.99
2023-05-12T09:17:24.235Z,18.00
2023-05-12T09:18:24.177Z,17.75
2023-05-12T09:19:24.175Z,17.87
2023-05-12T09:21:25.195Z,18.00
2023-05-12T09:22:24.177Z,18.00
2023-05-12T09:23:24.255Z,18.07
2023-05-12T09:24:24.230Z,18.16
2023-05-12T09:25:24.170Z,18.21
2023-05-12T09:26:24.110Z,18.23
2023-05-12T09:27:24.140Z,18.00
2023-05-12T09:28:24.119Z,18.17
2023-05-12T09:29:31.821Z,18.17
2023-05-12T09:30:25.101Z,18.11
2023-05-12T09:31:24.082Z,18.01
2023-05-12T09:32:24.094Z,17.94
2023-05-12T09:33:24.084Z,17.99
2023-05-12T09:34:24.227Z,18.18
2023-05-12T09:35:24.083Z,18.31
2023-05-12T09:36:24.030Z,18.37
2023-05-12T09:37:24.034Z,18.37
2023-05-12T09:38:24.042Z,18.41
2023-05-12T09:39:24.038Z,18.38
2023-05-12T09:40:25.025Z,18.27
2023-05-12T09:41:24.103Z,18.37
2023-05-12T09:42:24.139Z,18.44
2023-05-12T09:43:24.177Z,18.51
2023-05-12T09:44:24.300Z,18.52
2023-05-12T09:45:24.474Z,18.30
2023-05-12T09:46:24.510Z,18.33
2023-05-12T09:47:24.307Z,18.40
2023-05-12T09:48:26.191Z,18.40
2023-05-12T09:49:24.744Z,18.37
2023-05-12T09:50:24.269Z,18.06
2023-05-12T09:51:24.301Z,18.01
2023-05-12T09:52:24.257Z,18.00
2023-05-12T09:53:24.226Z,18.01
2023-05-12T09:54:24.241Z,17.89
2023-05-12T09:55:24.255Z,17.90
2023-05-12T09:56:24.212Z,17.97
2023-05-12T09:57:24.209Z,18.07
2023-05-12T09:58:24.184Z,17.92
2023-05-12T09:59:24.191Z,18.04
2023-05-12T10:00:37.035Z,18.08
2023-05-12T10:01:25.352Z,17.96
2023-05-12T10:02:24.302Z,18.03
2023-05-12T10:03:24.147Z,17.78
2023-05-12T10:04:24.289Z,17.86
2023-05-12T10:05:24.212Z,17.39
2023-05-12T10:06:24.162Z,17.51
2023-05-12T10:07:24.102Z,17.69
2023-05-12T10:08:24.128Z,17.48
2023-05-12T10:09:24.285Z,17.66
2023-05-12T10:10:24.122Z,17.76
2023-05-12T10:11:24.114Z,17.65
2023-05-12T10:12:24.160Z,17.78
2023-05-12T10:13:24.177Z,17.78
2023-05-12T10:14:24.273Z,17.83
2023-05-12T10:15:24.274Z,18.01
2023-05-12T10:16:24.311Z,18.11
2023-05-12T10:17:24.401Z,18.06
2023-05-12T10:18:24.489Z,17.96
2023-05-12T10:19:24.484Z,18.13
2023-05-12T10:20:24.530Z,18.14
2023-05-12T10:21:24.566Z,17.82
2023-05-12T10:22:24.639Z,17.87
2023-05-12T10:23:24.697Z,17.70
2023-05-12T10:24:24.795Z,17.89
2023-05-12T10:25:24.752Z,17.87
2023-05-12T10:26:24.762Z,17.93
2023-05-12T10:27:24.787Z,17.89
2023-05-12T10:28:24.844Z,18.06
2023-05-12T10:29:24.869Z,17.97
2023-05-12T10:30:24.934Z,17.93
2023-05-12T10:31:24.970Z,18.03
2023-05-12T10:32:24.935Z,17.92
2023-05-12T10:33:25.058Z,17.83
2023-05-12T10:34:25.275Z,17.92
2023-05-12T10:35:25.024Z,17.90
2023-05-12T10:36:25.032Z,17.79
2023-05-12T10:37:25.014Z,17.90
2023-05-12T10:38:24.999Z,17.72
2023-05-12T10:39:25.300Z,17.72
2023-05-12T10:40:25.009Z,17.86
2023-05-12T10:41:25.019Z,17.96
2023-05-12T10:42:25.046Z,18.08
2023-05-12T10:43:25.000Z,18.08
2023-05-12T10:44:25.002Z,18.16
2023-05-12T10:45:25.066Z,17.87
2023-05-12T10:46:25.101Z,17.85
2023-05-12T10:47:25.065Z,17.94
2023-05-12T10:48:25.020Z,18.08
2023-05-12T10:49:25.094Z,18.04
2023-05-12T10:50:25.021Z,18.07
2023-05-12T10:51:25.026Z,18.14
2023-05-12T10:52:25.015Z,18.11
2023-05-12T10:53:28.616Z,18.14
2023-05-12T10:54:26.043Z,18.14
2023-05-12T10:55:25.339Z,18.13
2023-05-12T10:56:25.387Z,17.94
2023-05-12T10:57:25.210Z,18.20
2023-05-12T10:58:25.313Z,18.06
2023-05-12T10:59:25.588Z,18.08
2023-05-12T11:00:25.778Z,18.04
2023-05-12T11:01:25.430Z,18.04
2023-05-12T11:02:26.087Z,18.01
2023-05-12T11:03:25.603Z,18.08
2023-05-12T11:04:25.174Z,18.17
2023-05-12T11:05:25.377Z,18.25
2023-05-12T11:06:25.660Z,18.24
2023-05-12T11:07:25.276Z,18.28
2023-05-12T11:08:25.357Z,18.11
2023-05-12T11:09:25.430Z,18.35
2023-05-12T11:10:26.604Z,18.34
2023-05-12T11:11:26.392Z,18.51
2023-05-12T11:12:25.386Z,18.42
2023-05-12T11:13:25.397Z,18.38
2023-05-12T11:14:25.493Z,17.96
2023-05-12T11:15:25.514Z,18.14
2023-05-12T11:16:25.546Z,18.33
2023-05-12T11:17:25.686Z,18.37
2023-05-12T11:18:25.627Z,18.50
2023-05-12T11:19:25.682Z,18.59
2023-05-12T11:20:26.143Z,18.59
2023-05-12T11:21:25.766Z,18.73
2023-05-12T11:22:25.803Z,18.83
2023-05-12T11:23:25.880Z,18.89
2023-05-12T11:24:25.947Z,18.89
2023-05-12T11:25:25.962Z,19.03
2023-05-12T11:26:26.027Z,18.89
2023-05-12T11:27:26.026Z,18.90
2023-05-12T11:28:26.070Z,18.88
2023-05-12T11:29:26.076Z,18.86
2023-05-12T11:30:26.106Z,18.97
2023-05-12T11:31:26.240Z,19.14
2023-05-12T11:32:26.211Z,18.99
2023-05-12T11:33:26.131Z,18.96
2023-05-12T11:34:26.303Z,18.89
2023-05-12T11:35:26.136Z,18.96
2023-05-12T11:36:26.136Z,19.07
2023-05-12T11:37:26.241Z,19.00
2023-05-12T11:38:26.203Z,18.89
2023-05-12T11:39:26.159Z,19.13
2023-05-12T11:40:26.189Z,19.35
2023-05-12T11:41:26.201Z,19.30
2023-05-12T11:42:26.273Z,19.35
2023-05-12T11:43:26.259Z,19.44
2023-05-12T11:44:26.809Z,19.41
2023-05-12T11:45:26.376Z,19.11
2023-05-12T11:46:26.633Z,19.37
2023-05-12T11:47:26.575Z,19.35
2023-05-12T11:48:26.568Z,19.45
2023-05-12T11:49:26.666Z,19.44
2023-05-12T11:50:26.660Z,19.51
2023-05-12T11:51:26.729Z,19.51
2023-05-12T11:52:26.759Z,19.42
2023-05-12T11:53:27.800Z,19.33
2023-05-12T11:54:26.917Z,19.14
2023-05-12T11:55:26.970Z,19.13
2023-05-12T11:56:27.010Z,19.17
2023-05-12T11:57:27.078Z,19.21
2023-05-12T11:58:27.219Z,19.41
2023-05-12T11:59:27.202Z,19.21
2023-05-12T12:00:27.253Z,19.21
2023-05-12T12:01:27.316Z,19.51
2023-05-12T12:02:27.475Z,19.61
2023-05-12T12:03:27.479Z,19.64
2023-05-12T12:04:27.515Z,19.57
2023-05-12T12:05:27.493Z,19.55
2023-05-12T12:06:27.601Z,19.45
2023-05-12T12:07:27.585Z,19.50
2023-05-12T12:08:27.644Z,19.57
2023-05-12T12:09:27.718Z,19.54
2023-05-12T12:10:27.792Z,19.64
2023-05-12T12:11:27.792Z,19.66
2023-05-12T12:12:27.831Z,19.68
2023-05-12T12:13:27.849Z,19.52
2023-05-12T12:14:28.326Z,19.25
2023-05-12T12:15:27.965Z,19.38
2023-05-12T12:16:28.122Z,19.64
2023-05-12T12:17:28.115Z,19.68
2023-05-12T12:18:28.200Z,19.62
2023-05-12T12:19:28.217Z,19.57
2023-05-12T12:20:28.202Z,19.57
2023-05-12T12:21:28.280Z,19.65
2023-05-12T12:22:28.422Z,19.61
2023-05-12T12:23:30.386Z,19.62
2023-05-12T12:24:29.414Z,19.55
2023-05-12T12:25:28.408Z,19.64
2023-05-12T12:26:28.354Z,19.73
2023-05-12T12:27:28.342Z,19.50
2023-05-12T12:28:28.324Z,19.50
2023-05-12T12:29:28.362Z,19.47
2023-05-12T12:30:28.847Z,19.68
2023-05-12T12:31:28.411Z,19.68
2023-05-12T12:32:28.348Z,19.65
2023-05-12T12:33:28.311Z,19.69
2023-05-12T12:34:28.284Z,19.93
2023-05-12T12:35:28.309Z,19.95
2023-05-12T12:36:28.281Z,19.90
2023-05-12T12:37:28.261Z,20.12
2023-05-12T12:38:28.353Z,19.83
2023-05-12T12:39:28.305Z,19.69
2023-05-12T12:40:28.329Z,19.70
2023-05-12T12:41:28.234Z,19.82
2023-05-12T12:42:28.235Z,20.09
2023-05-12T12:43:28.252Z,19.97
2023-05-12T12:44:28.333Z,19.72
2023-05-12T12:45:28.855Z,19.68
2023-05-12T12:46:28.461Z,19.70
2023-05-12T12:47:28.502Z,19.86
2023-05-12T12:48:28.475Z,20.00
2023-05-12T12:49:28.475Z,19.99
2023-05-12T12:50:28.893Z,19.89
2023-05-12T12:51:38.542Z,20.12
2023-05-12T12:52:29.508Z,19.89
2023-05-12T12:53:28.476Z,20.00
2023-05-12T12:54:28.489Z,20.09
2023-05-12T12:55:28.463Z,20.10
2023-05-12T12:56:28.439Z,20.03